createdAt,value
2022-10-28T00:00:12.397Z,4.53
2022-10-28T00:03:02.399Z,4.53
2022-10-28T00:05:49.896Z,4.35
2022-10-28T00:08:37.597Z,5.07
2022-10-28T00:11:26.634Z,5.18
2022-10-28T00:14:14.972Z,4.95
2022-10-28T00:17:03.417Z,5.10
2022-10-28T00:19:50.587Z,5.00
2022-10-28T00:22:37.686Z,4.65
2022-10-28T00:25:25.442Z,4.97
2022-10-28T00:28:12.324Z,4.45
2022-10-28T00:31:05.538Z,4.55
2022-10-28T00:33:54.613Z,4.30
2022-10-28T00:36:43.337Z,4.63
2022-10-28T00:39:30.308Z,4.30
2022-10-28T00:42:20.220Z,4.53
2022-10-28T00:45:08.209Z,4.55
2022-10-28T00:47:58.317Z,4.15
2022-10-28T00:50:51.781Z,4.30
2022-10-28T00:53:40.618Z,4.47
2022-10-28T00:56:31.568Z,4.20
2022-10-28T00:59:21.877Z,4.43
2022-10-28T01:02:09.576Z,4.75
2022-10-28T01:04:57.021Z,4.72
2022-10-28T01:07:46.244Z,4.40
2022-10-28T01:10:59.857Z,4.57
2022-10-28T01:14:01.186Z,4.70
2022-10-28T01:17:01.015Z,4.85
2022-10-28T01:20:26.153Z,4.60
2022-10-28T01:23:23.021Z,4.53
2022-10-28T01:26:39.459Z,4.18
2022-10-28T01:29:47.492Z,4.47
2022-10-28T01:32:49.682Z,4.40
2022-10-28T01:35:45.235Z,4.60
2022-10-28T01:38:36.835Z,4.65
2022-10-28T01:41:31.725Z,4.80
2022-10-28T01:44:25.437Z,4.60
2022-10-28T01:47:16.853Z,4.43
2022-10-28T01:50:09.649Z,4.50
2022-10-28T01:53:00.316Z,4.53
2022-10-28T01:55:50.208Z,4.50
2022-10-28T01:58:40.678Z,4.47
2022-10-28T02:01:29.863Z,4.63
2022-10-28T02:04:17.149Z,4.25
2022-10-28T02:07:06.338Z,4.00
2022-10-28T02:10:04.190Z,4.25
2022-10-28T02:12:55.311Z,4.13
2022-10-28T02:15:50.729Z,4.40
2022-10-28T02:18:49.222Z,4.95
2022-10-28T02:21:47.043Z,4.55
2022-10-28T02:24:45.405Z,4.00
2022-10-28T02:27:37.619Z,4.53
2022-10-28T02:30:29.233Z,4.00
2022-10-28T02:33:20.051Z,4.00
2022-10-28T02:36:09.901Z,3.78
2022-10-28T02:38:59.503Z,4.90
2022-10-28T02:41:53.065Z,4.13
2022-10-28T02:44:42.902Z,3.75
2022-10-28T02:47:33.975Z,4.10
2022-10-28T02:50:26.017Z,4.28
2022-10-28T02:53:16.932Z,4.43
2022-10-28T02:56:06.763Z,4.00
2022-10-28T02:58:55.399Z,3.78
2022-10-28T03:01:42.186Z,4.20
2022-10-28T03:04:29.446Z,4.40
2022-10-28T03:07:16.527Z,4.47
2022-10-28T03:10:04.002Z,3.65
2022-10-28T03:12:51.098Z,4.30
2022-10-28T03:15:39.578Z,4.40
2022-10-28T03:18:26.783Z,4.15
2022-10-28T03:21:14.073Z,4.28
2022-10-28T03:24:01.060Z,4.10
2022-10-28T03:26:48.210Z,3.90
2022-10-28T03:29:35.655Z,4.15
2022-10-28T03:32:24.348Z,3.90
2022-10-28T03:35:11.626Z,4.07
2022-10-28T03:37:58.573Z,3.88
2022-10-28T03:40:48.585Z,4.30
2022-10-28T03:43:35.359Z,4.40
2022-10-28T03:46:22.587Z,4.00
2022-10-28T03:49:11.230Z,4.28
2022-10-28T03:51:58.240Z,4.10
2022-10-28T03:54:45.633Z,3.75
2022-10-28T03:57:33.126Z,4.18
2022-10-28T04:00:20.953Z,4.28
2022-10-28T04:03:07.800Z,4.53
2022-10-28T04:05:56.066Z,4.20
2022-10-28T04:08:43.285Z,4.20
2022-10-28T04:11:30.175Z,4.43
2022-10-28T04:14:17.586Z,4.07
2022-10-28T04:17:04.517Z,4.10
2022-10-28T04:19:51.571Z,3.97
2022-10-28T04:22:39.871Z,4.30
2022-10-28T04:25:28.378Z,3.90
2022-10-28T04:28:15.478Z,4.10
2022-10-28T04:31:03.121Z,4.07
2022-10-28T04:33:50.413Z,3.72
2022-10-28T04:36:37.644Z,4.10
2022-10-28T04:39:26.356Z,4.20
2022-10-28T04:42:13.700Z,4.60
2022-10-28T04:45:01.022Z,4.00
2022-10-28T04:47:48.081Z,3.85
2022-10-28T04:50:35.406Z,4.32
2022-10-28T04:53:30.722Z,4.38
2022-10-28T04:56:19.128Z,4.05
2022-10-28T04:59:06.303Z,4.07
2022-10-28T05:01:53.640Z,4.32
2022-10-28T05:04:40.608Z,4.15
2022-10-28T05:07:27.791Z,4.25
2022-10-28T05:10:17.984Z,4.07
2022-10-28T05:13:06.551Z,4.43
2022-10-28T05:15:53.777Z,3.73
2022-10-28T05:18:40.783Z,4.47
2022-10-28T05:21:28.106Z,4.93
2022-10-28T05:24:15.475Z,4.15
2022-10-28T05:27:02.722Z,4.72
2022-10-28T05:29:51.091Z,4.40
2022-10-28T05:32:38.322Z,5.20
2022-10-28T05:35:25.562Z,4.80
2022-10-28T05:38:12.952Z,4.60
2022-10-28T05:41:00.159Z,4.90
2022-10-28T05:43:47.242Z,4.53
2022-10-28T05:46:35.630Z,4.43
2022-10-28T05:49:22.759Z,5.20
2022-10-28T05:52:09.996Z,5.07
2022-10-28T05:54:57.286Z,5.00
2022-10-28T05:57:44.567Z,5.03
2022-10-28T06:00:33.067Z,4.67
2022-10-28T06:03:21.340Z,5.00
2022-10-28T06:06:08.733Z,5.60
2022-10-28T06:08:56.055Z,4.63
2022-10-28T06:11:41.914Z,5.07
2022-10-28T06:14:28.725Z,5.07
2022-10-28T06:17:16.118Z,4.40
2022-10-28T06:20:05.741Z,4.93
2022-10-28T06:22:55.289Z,5.07
2022-10-28T06:25:43.071Z,5.38
2022-10-28T06:28:30.910Z,4.93
2022-10-28T06:31:18.304Z,5.65
2022-10-28T06:34:06.002Z,5.28
2022-10-28T06:36:54.572Z,5.82
2022-10-28T06:39:42.917Z,5.53
2022-10-28T06:42:30.042Z,5.55
2022-10-28T06:45:17.382Z,5.40
2022-10-28T06:48:07.530Z,5.22
2022-10-28T06:50:56.238Z,5.18
2022-10-28T06:53:44.910Z,4.93
2022-10-28T06:56:32.211Z,4.38
2022-10-28T06:59:19.292Z,4.80
2022-10-28T07:02:06.656Z,5.25
2022-10-28T07:04:53.508Z,4.82
2022-10-28T07:07:40.505Z,5.25
2022-10-28T07:10:29.007Z,4.82
2022-10-28T07:13:16.365Z,4.97
2022-10-28T07:16:03.548Z,4.43
2022-10-28T07:18:50.756Z,4.95
2022-10-28T07:21:38.302Z,4.40
2022-10-28T07:24:25.378Z,4.15
2022-10-28T07:27:14.596Z,4.07
2022-10-28T07:30:01.688Z,4.43
2022-10-28T07:32:48.943Z,4.30
2022-10-28T07:35:36.313Z,3.90
2022-10-28T07:38:23.535Z,3.55
2022-10-28T07:41:11.442Z,3.92
2022-10-28T07:44:00.441Z,3.92
2022-10-28T07:46:47.345Z,4.40
2022-10-28T07:49:34.605Z,3.28
2022-10-28T07:52:21.980Z,3.78
2022-10-28T07:55:09.684Z,4.15
2022-10-28T07:57:57.237Z,3.55
2022-10-28T08:00:45.549Z,3.38
2022-10-28T08:03:38.688Z,2.67
2022-10-28T08:06:26.364Z,3.58
2022-10-28T08:09:13.641Z,3.10
2022-10-28T08:12:00.913Z,4.05
2022-10-28T08:14:47.795Z,3.25
2022-10-28T08:17:36.456Z,3.58
2022-10-28T08:20:24.033Z,3.10
2022-10-28T08:23:10.982Z,3.33
2022-10-28T08:25:58.748Z,2.90
2022-10-28T08:28:46.180Z,3.00
2022-10-28T08:31:33.995Z,2.92
2022-10-28T08:34:22.336Z,2.90
2022-10-28T08:37:09.744Z,2.85
2022-10-28T08:39:56.945Z,2.70
2022-10-28T08:42:48.340Z,3.05
2022-10-28T08:45:45.451Z,2.78
2022-10-28T08:48:35.235Z,3.05
2022-10-28T08:51:29.776Z,2.65
2022-10-28T08:54:21.590Z,2.53
2022-10-28T08:57:18.162Z,2.88
2022-10-28T09:00:08.531Z,2.92
2022-10-28T09:03:09.317Z,3.00
2022-10-28T09:06:03.451Z,2.67
2022-10-28T09:08:52.903Z,2.50
2022-10-28T09:11:58.029Z,2.42
2022-10-28T09:14:58.837Z,2.08
2022-10-28T09:17:55.227Z,2.42
2022-10-28T09:20:52.737Z,2.50
2022-10-28T09:23:49.492Z,2.60
2022-10-28T09:26:48.123Z,2.40
2022-10-28T09:29:44.490Z,2.70
2022-10-28T09:32:43.085Z,2.30
2022-10-28T09:35:34.262Z,2.28
2022-10-28T09:38:28.301Z,2.45
2022-10-28T09:41:20.669Z,2.42
2022-10-28T09:44:16.688Z,2.08
2022-10-28T09:47:05.825Z,2.30
2022-10-28T09:49:57.402Z,2.53
2022-10-28T09:52:51.256Z,2.80
2022-10-28T09:55:38.428Z,2.20
2022-10-28T09:58:25.943Z,2.53
2022-10-28T10:01:15.047Z,2.53
2022-10-28T10:04:02.748Z,2.65
2022-10-28T10:06:53.621Z,2.00
2022-10-28T10:09:41.216Z,2.10
2022-10-28T10:12:29.896Z,2.40
2022-10-28T10:15:26.704Z,2.55
2022-10-28T10:18:18.243Z,2.45
2022-10-28T10:21:06.172Z,2.50
2022-10-28T10:23:52.885Z,2.75
2022-10-28T10:26:40.020Z,2.08
2022-10-28T10:29:27.284Z,2.13
2022-10-28T10:32:19.258Z,2.20
2022-10-28T10:35:20.883Z,2.15
2022-10-28T10:38:08.599Z,2.50
2022-10-28T10:40:55.527Z,2.35
2022-10-28T10:43:42.679Z,2.00
2022-10-28T10:46:29.993Z,2.42
2022-10-28T10:49:17.176Z,2.47
2022-10-28T10:52:08.536Z,2.35
2022-10-28T10:55:05.226Z,2.53
2022-10-28T10:57:52.594Z,2.88
2022-10-28T11:00:47.046Z,2.35
2022-10-28T11:03:38.303Z,2.30
2022-10-28T11:06:29.212Z,2.42
2022-10-28T11:09:23.955Z,2.22
2022-10-28T11:12:25.526Z,2.45
2022-10-28T11:15:25.189Z,2.20
2022-10-28T11:18:20.726Z,2.67
2022-10-28T11:21:15.385Z,2.60
2022-10-28T11:24:16.573Z,2.95
2022-10-28T11:27:14.292Z,2.58
2022-10-28T11:30:02.957Z,2.10
2022-10-28T11:33:24.712Z,2.20
2022-10-28T11:36:23.967Z,2.20
2022-10-28T11:39:21.496Z,2.35
2022-10-28T11:42:24.034Z,2.00
2022-10-28T11:45:16.984Z,2.65
2022-10-28T11:48:19.551Z,1.98
2022-10-28T11:51:19.561Z,1.98
2022-10-28T11:54:27.516Z,2.25
2022-10-28T11:57:18.391Z,2.17
2022-10-28T12:00:22.624Z,1.90
2022-10-28T12:03:40.863Z,2.30
2022-10-28T12:06:40.050Z,3.03
2022-10-28T12:09:37.453Z,2.10
2022-10-28T12:12:31.775Z,2.85
2022-10-28T12:15:25.853Z,2.38
2022-10-28T12:18:19.855Z,2.00
2022-10-28T12:21:15.857Z,2.72
2022-10-28T12:24:06.323Z,2.22
2022-10-28T12:26:56.175Z,2.10
2022-10-28T12:29:49.849Z,1.95
2022-10-28T12:32:38.556Z,2.35
2022-10-28T12:35:29.638Z,2.33
2022-10-28T12:38:23.962Z,2.30
2022-10-28T12:41:16.660Z,2.03
2022-10-28T12:44:10.456Z,2.45
2022-10-28T12:47:07.802Z,2.20
2022-10-28T12:50:05.245Z,2.22
2022-10-28T12:52:59.969Z,2.20
2022-10-28T12:55:51.671Z,2.40
2022-10-28T12:58:46.361Z,2.28
2022-10-28T13:01:35.677Z,2.30
2022-10-28T13:04:24.217Z,2.65
2022-10-28T13:07:28.432Z,2.38
2022-10-28T13:10:25.284Z,2.08
2022-10-28T13:13:36.687Z,2.10
2022-10-28T13:16:53.215Z,2.47
2022-10-28T13:19:54.373Z,2.40
2022-10-28T13:23:15.341Z,2.78
2022-10-28T13:26:16.477Z,2.28
2022-10-28T13:29:07.210Z,2.50
2022-10-28T13:31:55.613Z,2.42
2022-10-28T13:34:42.816Z,2.58
2022-10-28T13:37:36.081Z,2.15
2022-10-28T13:40:44.755Z,2.65
2022-10-28T13:44:07.253Z,2.72
2022-10-28T13:47:31.525Z,2.10
2022-10-28T13:50:42.682Z,2.45
2022-10-28T13:53:40.643Z,2.88
2022-10-28T13:56:42.179Z,2.10
2022-10-28T13:59:33.409Z,2.40
2022-10-28T14:02:34.939Z,1.85
2022-10-28T14:05:26.718Z,2.25
2022-10-28T14:08:22.260Z,2.45
2022-10-28T14:11:14.528Z,2.47
2022-10-28T14:14:04.203Z,2.33
2022-10-28T14:16:51.031Z,2.30
2022-10-28T14:19:38.360Z,2.78
2022-10-28T14:22:31.559Z,2.78
2022-10-28T14:25:56.432Z,2.92
2022-10-28T14:28:57.584Z,2.67
2022-10-28T14:31:45.948Z,2.65
2022-10-28T14:34:45.081Z,2.40
2022-10-28T14:37:51.422Z,2.88
2022-10-28T14:40:46.648Z,2.50
2022-10-28T14:43:53.568Z,2.50
2022-10-28T14:46:56.542Z,2.00
2022-10-28T14:49:58.199Z,2.78
2022-10-28T14:52:47.648Z,2.50
2022-10-28T14:55:36.072Z,2.45
2022-10-28T14:58:25.610Z,3.25
2022-10-28T15:01:25.805Z,2.30
2022-10-28T15:04:14.276Z,2.38
2022-10-28T15:07:01.837Z,2.50
2022-10-28T15:09:53.317Z,2.72
2022-10-28T15:12:40.857Z,2.50
2022-10-28T15:15:29.492Z,2.25
2022-10-28T15:18:22.847Z,2.63
2022-10-28T15:21:12.925Z,2.67
2022-10-28T15:24:01.944Z,2.35
2022-10-28T15:26:54.704Z,2.50
2022-10-28T15:29:43.526Z,2.50
2022-10-28T15:32:33.143Z,2.60
2022-10-28T15:35:40.803Z,2.63
2022-10-28T15:38:39.980Z,3.08
2022-10-28T15:41:52.305Z,2.70
2022-10-28T15:44:40.716Z,2.75
2022-10-28T15:47:33.952Z,2.35
2022-10-28T15:50:40.752Z,2.33
2022-10-28T15:53:40.774Z,2.60
2022-10-28T15:56:28.580Z,2.60
2022-10-28T15:59:21.181Z,3.22
2022-10-28T16:02:43.185Z,3.17
2022-10-28T16:05:47.566Z,3.13
2022-10-28T16:08:35.170Z,2.97
2022-10-28T16:11:23.798Z,2.90
2022-10-28T16:14:35.869Z,3.17
2022-10-28T16:17:26.971Z,3.15
2022-10-28T16:20:18.944Z,3.03
2022-10-28T16:23:05.963Z,2.88
2022-10-28T16:25:53.037Z,3.08
2022-10-28T16:28:45.248Z,3.20
2022-10-28T16:31:33.221Z,3.00
2022-10-28T16:34:20.197Z,2.95
2022-10-28T16:37:22.857Z,2.65
2022-10-28T16:40:30.748Z,2.58
2022-10-28T16:43:20.599Z,2.70
2022-10-28T16:46:11.563Z,2.58
2022-10-28T16:48:58.736Z,2.90
2022-10-28T16:51:46.117Z,3.55
2022-10-28T16:54:33.426Z,2.83
2022-10-28T16:57:21.370Z,2.78
2022-10-28T17:00:11.142Z,2.55
2022-10-28T17:02:59.859Z,2.97
2022-10-28T17:05:47.359Z,2.53
2022-10-28T17:09:01.125Z,3.20
2022-10-28T17:11:41.521Z,2.58
2022-10-28T17:14:28.550Z,2.67
2022-10-28T17:17:16.630Z,2.63
2022-10-28T17:20:06.088Z,2.85
2022-10-28T17:22:54.239Z,2.83
2022-10-28T17:28:34.493Z,2.88
2022-10-28T17:31:24.871Z,2.88
2022-10-28T17:34:12.945Z,2.90
2022-10-28T17:37:01.515Z,2.90
2022-10-28T17:39:48.917Z,3.53
2022-10-28T17:42:36.345Z,3.08
2022-10-28T17:45:23.496Z,3.00
2022-10-28T17:48:11.198Z,2.58
2022-10-28T17:50:58.633Z,3.50
2022-10-28T17:53:47.334Z,2.80
2022-10-28T17:56:34.930Z,3.50
2022-10-28T17:59:21.942Z,3.50
2022-10-28T18:02:12.452Z,3.20
2022-10-28T18:04:59.770Z,3.22
2022-10-28T18:07:46.737Z,3.00
2022-10-28T18:10:35.254Z,3.17
2022-10-28T18:13:22.655Z,3.38
2022-10-28T18:16:12.122Z,3.40
2022-10-28T18:19:04.547Z,3.42
2022-10-28T18:21:51.729Z,3.17
2022-10-28T18:24:38.935Z,3.10
2022-10-28T18:27:29.881Z,3.70
2022-10-28T18:30:17.456Z,3.92
2022-10-28T18:33:04.600Z,3.40
2022-10-28T18:35:51.808Z,3.00
2022-10-28T18:38:39.196Z,3.13
2022-10-28T18:41:28.616Z,3.30
2022-10-28T18:44:19.976Z,3.42
2022-10-28T18:47:08.037Z,3.13
2022-10-28T18:49:55.262Z,3.35
2022-10-28T18:52:42.597Z,3.28
2022-10-28T18:55:29.806Z,3.25
2022-10-28T18:58:17.257Z,2.90
2022-10-28T19:01:07.800Z,3.47
2022-10-28T19:03:56.654Z,2.78
2022-10-28T19:06:44.163Z,3.22
2022-10-28T19:09:31.392Z,3.05
2022-10-28T19:12:18.534Z,3.70
2022-10-28T19:15:06.695Z,2.83
2022-10-28T19:17:55.353Z,3.47
2022-10-28T19:20:42.680Z,3.25
2022-10-28T19:23:29.713Z,3.25
2022-10-28T19:26:16.996Z,3.65
2022-10-28T19:29:05.745Z,3.10
2022-10-28T19:31:52.714Z,3.25
2022-10-28T19:34:41.038Z,3.33
2022-10-28T19:37:28.353Z,3.85
2022-10-28T19:40:15.413Z,3.42
2022-10-28T19:43:02.447Z,3.40
2022-10-28T19:45:49.644Z,3.28
2022-10-28T19:48:36.931Z,3.40
2022-10-28T19:51:27.260Z,3.60
2022-10-28T19:54:15.759Z,3.55
2022-10-28T19:57:03.060Z,3.40
2022-10-28T19:59:50.009Z,3.58
2022-10-28T20:02:37.318Z,3.00
2022-10-28T20:05:24.329Z,3.30
2022-10-28T20:08:13.011Z,2.80
2022-10-28T20:11:01.670Z,3.13
2022-10-28T20:13:52.328Z,3.78
2022-10-28T20:16:42.440Z,2.90
2022-10-28T20:19:29.572Z,3.30
2022-10-28T20:22:17.177Z,3.42
2022-10-28T20:25:08.498Z,3.15
2022-10-28T20:27:56.061Z,3.70
2022-10-28T20:30:43.200Z,3.60
2022-10-28T20:33:31.304Z,3.35
2022-10-28T20:36:23.592Z,3.55
2022-10-28T20:39:13.919Z,3.67
2022-10-28T20:42:02.352Z,3.60
2022-10-28T20:44:49.617Z,3.88
2022-10-28T20:47:36.921Z,3.20
2022-10-28T20:50:24.220Z,3.13
2022-10-28T20:53:11.487Z,3.10
2022-10-28T20:55:59.242Z,3.78
2022-10-28T20:58:47.981Z,3.25
2022-10-28T21:01:37.565Z,3.55
2022-10-28T21:04:24.767Z,3.13
2022-10-28T21:07:12.210Z,3.58
2022-10-28T21:09:59.791Z,2.88
2022-10-28T21:12:46.829Z,3.55
2022-10-28T21:15:37.405Z,3.42
2022-10-28T21:18:25.023Z,3.22
2022-10-28T21:21:12.384Z,3.65
2022-10-28T21:23:59.535Z,3.25
2022-10-28T21:26:48.428Z,3.17
2022-10-28T21:29:39.223Z,3.28
2022-10-28T21:32:28.166Z,3.25
2022-10-28T21:35:15.167Z,3.50
2022-10-28T21:38:02.424Z,3.38
2022-10-28T21:40:49.431Z,3.70
2022-10-28T21:43:38.299Z,3.28
2022-10-28T21:46:25.508Z,3.83
2022-10-28T21:49:13.894Z,3.40
2022-10-28T21:52:01.232Z,3.67
2022-10-28T21:54:48.322Z,3.42
2022-10-28T21:57:35.672Z,3.08
2022-10-28T22:00:23.153Z,4.07
2022-10-28T22:03:10.483Z,3.67
2022-10-28T22:05:59.095Z,4.03
2022-10-28T22:08:46.800Z,3.28
2022-10-28T22:11:33.849Z,3.17
2022-10-28T22:14:21.293Z,3.60
2022-10-28T22:17:08.429Z,3.20
2022-10-28T22:19:55.957Z,3.67
2022-10-28T22:22:44.305Z,3.45
2022-10-28T22:25:32.159Z,3.92
2022-10-28T22:28:19.979Z,3.28
2022-10-28T22:31:08.687Z,3.50
2022-10-28T22:33:57.113Z,3.70
2022-10-28T22:36:44.928Z,3.70
2022-10-28T22:39:33.665Z,4.32
2022-10-28T22:42:20.855Z,3.53
2022-10-28T22:45:08.892Z,3.38
2022-10-28T22:47:56.361Z,3.90
2022-10-28T22:50:43.955Z,4.43
2022-10-28T22:53:31.592Z,3.63
2022-10-28T22:56:22.412Z,3.85
2022-10-28T22:59:09.449Z,4.00
2022-10-28T23:01:56.830Z,4.18
2022-10-28T23:04:44.169Z,3.40
2022-10-28T23:07:31.473Z,3.63
2022-10-28T23:10:18.638Z,3.67
2022-10-28T23:13:07.046Z,3.20
2022-10-28T23:15:54.719Z,3.45
2022-10-28T23:18:41.862Z,3.53
2022-10-28T23:21:28.824Z,3.25
2022-10-28T23:24:16.167Z,3.40
2022-10-28T23:27:03.405Z,3.10
2022-10-28T23:29:51.781Z,3.97
2022-10-28T23:32:39.558Z,3.65
2022-10-28T23:35:27.231Z,3.70
2022-10-28T23:38:16.487Z,3.38
2022-10-28T23:41:05.042Z,2.85
2022-10-28T23:43:52.325Z,4.18
2022-10-28T23:46:41.077Z,4.05
2022-10-28T23:49:28.313Z,3.13
2022-10-28T23:52:15.593Z,3.80
2022-10-28T23:55:02.917Z,3.20
2022-10-28T23:57:50.320Z,3.33
